Observations for BOLZANO CIV IT-AFB, Italy (LIPB)

LIPB 092150Z VRB03KT 9999 SCT080 03/02 Q1012
LIPB 092050Z 00000KT 9999 SCT080 03/02 Q1011
LIPB 091950Z 32004KT 230V020 9999 SCT120 03/01 Q1010
LIPB 091750Z VRB01KT 9999 FEW085 02/01 Q1009
LIPB 091650Z VRB01KT CAVOK 03/01 Q1008  
LIPB 091550Z VRB02KT CAVOK 02/00 Q1008  
LIPB 091450Z VRB01KT CAVOK 05/01 Q1008  
LIPB 091350Z VRB03KT CAVOK 08/01 Q1008  
LIPB 091250Z VRB02KT 9999 SCT100 07/M01 Q1008   
LIPB 091150Z VRB01KT CAVOK 07/M01 Q1009 
LIPB 091050Z VRB02KT 9999 FEW035 SCT070 05/M01 Q1010
LIPB 090950Z VRB03KT 9999 VCSH FEW070 SCT100 04/M01 Q1010   
LIPB 090850Z VRB01KT 9999 FEW070 SCT110 01/M01 Q1008
LIPB 090750Z VRB01KT 9999 SCT100 M01/M01 Q1009  
LIPB 090650Z VRB01KT 9999 SCT100 M01/M02 Q1009  
LIPB 090550Z VRB03KT 9999 SCT100 M03/M03 Q1009